createdAt,value
2023-02-02T00:02:33.579Z,100.00
2023-02-02T00:07:36.759Z,100.00
2023-02-02T00:12:39.965Z,100.00
2023-02-02T00:17:44.573Z,100.00
2023-02-02T00:22:47.934Z,100.00
2023-02-02T00:27:51.038Z,100.00
2023-02-02T00:32:55.571Z,100.00
2023-02-02T00:37:58.728Z,100.00
2023-02-02T00:43:01.995Z,100.00
2023-02-02T00:48:06.942Z,100.00
2023-02-02T00:53:10.299Z,100.00
2023-02-02T00:58:13.599Z,100.00
2023-02-02T01:03:18.181Z,100.00
2023-02-02T01:08:21.433Z,100.00
2023-02-02T01:13:24.699Z,100.00
2023-02-02T01:18:30.075Z,100.00
2023-02-02T01:23:34.682Z,100.00
2023-02-02T01:28:38.362Z,100.00
2023-02-02T01:33:45.560Z,100.00
2023-02-02T01:38:49.462Z,100.00
2023-02-02T01:43:58.894Z,100.00
2023-02-02T01:49:09.318Z,100.00
2023-02-02T01:54:18.071Z,100.00
2023-02-02T01:59:21.466Z,100.00
2023-02-02T02:04:28.150Z,100.00
2023-02-02T02:09:33.001Z,100.00
2023-02-02T02:14:53.607Z,100.00
2023-02-02T02:21:01.918Z,100.00
2023-02-02T02:26:38.427Z,100.00
2023-02-02T02:32:06.142Z,100.00
2023-02-02T02:37:13.854Z,100.00
2023-02-02T02:42:21.225Z,100.00
2023-02-02T02:47:27.248Z,100.00
2023-02-02T02:52:31.228Z,100.00
2023-02-02T02:57:45.235Z,100.00
2023-02-02T03:02:57.413Z,100.00
2023-02-02T03:08:09.986Z,100.00
2023-02-02T03:13:17.039Z,100.00
2023-02-02T03:18:27.458Z,100.00
2023-02-02T03:23:30.850Z,100.00
2023-02-02T03:28:34.271Z,99.81
2023-02-02T03:33:39.855Z,99.45
2023-02-02T03:38:43.037Z,98.88
2023-02-02T03:43:46.156Z,97.93
2023-02-02T03:48:50.683Z,98.71
2023-02-02T03:53:54.238Z,98.80
2023-02-02T03:58:57.520Z,98.73
2023-02-02T04:04:02.168Z,98.32
2023-02-02T04:09:05.287Z,98.15
2023-02-02T04:14:08.395Z,97.57
2023-02-02T04:19:14.102Z,97.95
2023-02-02T04:24:17.455Z,96.76
2023-02-02T04:29:20.704Z,96.46
2023-02-02T04:34:25.282Z,96.26
2023-02-02T04:39:28.743Z,95.89
2023-02-02T04:44:31.911Z,96.06
2023-02-02T04:49:36.333Z,95.92
2023-02-02T04:54:39.643Z,96.57
2023-02-02T04:59:42.942Z,96.32
2023-02-02T05:04:47.882Z,95.91
2023-02-02T05:09:51.345Z,96.19
2023-02-02T05:14:54.529Z,95.74
2023-02-02T05:19:59.119Z,95.80
2023-02-02T05:25:02.895Z,96.27
2023-02-02T05:30:07.165Z,95.53
2023-02-02T05:35:12.726Z,95.64
2023-02-02T05:40:18.183Z,95.34
2023-02-02T05:45:21.283Z,95.45
2023-02-02T05:50:27.692Z,95.52
2023-02-02T05:55:33.998Z,95.62
2023-02-02T06:00:37.436Z,96.19
2023-02-02T06:05:46.065Z,96.72
2023-02-02T06:10:49.341Z,96.61
2023-02-02T06:15:55.789Z,96.42
2023-02-02T06:21:01.643Z,96.24
2023-02-02T06:26:05.344Z,95.32
2023-02-02T06:31:10.670Z,95.77
2023-02-02T06:36:15.878Z,95.52
2023-02-02T06:41:20.528Z,95.35
2023-02-02T06:46:23.787Z,95.59
2023-02-02T06:51:28.343Z,95.04
2023-02-02T06:56:31.452Z,95.53
2023-02-02T07:01:34.954Z,95.45
2023-02-02T07:06:40.857Z,95.21
2023-02-02T07:11:45.666Z,95.48
2023-02-02T07:16:49.088Z,95.88
2023-02-02T07:21:54.370Z,95.45
2023-02-02T07:26:58.197Z,95.57
2023-02-02T07:32:02.739Z,95.32
2023-02-02T07:37:07.682Z,95.03
2023-02-02T07:42:12.982Z,94.61
2023-02-02T07:47:17.381Z,94.33
2023-02-02T07:52:22.194Z,93.98
2023-02-02T07:57:25.770Z,94.65
2023-02-02T08:02:29.347Z,93.66
2023-02-02T08:07:35.992Z,93.49
2023-02-02T08:12:39.438Z,93.42
2023-02-02T08:17:46.873Z,93.19
2023-02-02T08:22:51.346Z,92.25
2023-02-02T08:27:54.947Z,93.65
2023-02-02T08:32:58.202Z,93.20
2023-02-02T08:38:05.383Z,92.15
2023-02-02T08:43:10.662Z,92.33
2023-02-02T08:48:17.497Z,91.08
2023-02-02T08:53:23.668Z,90.52
2023-02-02T08:58:26.935Z,90.93
2023-02-02T09:03:30.101Z,90.13
2023-02-02T09:08:34.765Z,89.83
2023-02-02T09:13:38.969Z,90.53
2023-02-02T09:18:44.467Z,90.39
2023-02-02T09:23:50.554Z,90.11
2023-02-02T09:28:56.849Z,89.61
2023-02-02T09:34:03.037Z,89.26
2023-02-02T09:39:08.696Z,88.72
2023-02-02T09:44:18.614Z,88.25
2023-02-02T09:49:26.259Z,88.07
2023-02-02T09:54:37.056Z,87.72
2023-02-02T09:59:43.420Z,87.83
2023-02-02T10:04:51.562Z,87.53
2023-02-02T10:10:00.455Z,87.55
2023-02-02T10:15:13.647Z,87.71
2023-02-02T10:20:28.041Z,87.10
2023-02-02T10:25:36.580Z,86.81
2023-02-02T10:30:46.260Z,85.95
2023-02-02T10:35:58.279Z,85.00
2023-02-02T10:41:12.889Z,85.05
2023-02-02T10:46:22.459Z,84.81
2023-02-02T10:51:29.084Z,84.34
2023-02-02T10:56:41.610Z,84.21
2023-02-02T11:01:46.957Z,84.54
2023-02-02T11:06:53.058Z,84.44
2023-02-02T11:12:04.912Z,84.54
2023-02-02T11:17:17.596Z,84.46
2023-02-02T11:22:32.396Z,84.44
2023-02-02T11:27:42.336Z,84.13
2023-02-02T11:32:47.954Z,83.86
2023-02-02T11:37:59.561Z,83.86
2023-02-02T11:43:07.606Z,83.50
2023-02-02T11:48:19.707Z,82.90
2023-02-02T11:53:28.627Z,82.92
2023-02-02T11:58:44.962Z,82.73
2023-02-02T12:03:50.632Z,84.61
2023-02-02T12:08:58.421Z,86.36
2023-02-02T12:14:20.516Z,88.03
2023-02-02T12:19:53.502Z,89.58
2023-02-02T12:25:00.278Z,89.68
2023-02-02T12:30:24.518Z,88.07
2023-02-02T12:35:42.353Z,85.40
2023-02-02T12:41:05.760Z,84.16
2023-02-02T12:46:24.111Z,83.74
2023-02-02T12:51:47.266Z,83.57
2023-02-02T12:57:00.393Z,83.91
2023-02-02T13:02:12.599Z,84.38
2023-02-02T13:07:40.691Z,83.20
2023-02-02T13:12:47.760Z,83.67
2023-02-02T13:17:55.907Z,82.69
2023-02-02T13:23:03.747Z,82.07
2023-02-02T13:28:13.934Z,82.81
2023-02-02T13:33:24.454Z,82.33
2023-02-02T13:38:30.526Z,82.84
2023-02-02T13:43:44.868Z,82.33
2023-02-02T13:49:03.257Z,82.85
2023-02-02T13:54:25.574Z,83.27
2023-02-02T13:59:52.565Z,83.73
2023-02-02T14:05:00.277Z,84.05
2023-02-02T14:10:04.587Z,84.74
2023-02-02T14:15:13.337Z,85.18
2023-02-02T14:20:43.813Z,85.10
2023-02-02T14:26:08.516Z,86.14
2023-02-02T14:31:27.503Z,86.71
2023-02-02T14:36:32.636Z,85.96
2023-02-02T14:42:19.578Z,86.75
2023-02-02T14:47:56.519Z,87.17
2023-02-02T14:53:06.369Z,86.58
2023-02-02T14:58:12.240Z,86.17
2023-02-02T15:03:47.235Z,86.82
2023-02-02T15:09:26.630Z,87.06
2023-02-02T15:14:37.460Z,86.88
2023-02-02T15:19:43.742Z,86.12
2023-02-02T15:24:48.566Z,86.57
2023-02-02T15:29:59.844Z,86.48
2023-02-02T15:35:06.584Z,87.13
2023-02-02T15:40:16.464Z,88.09
2023-02-02T15:45:43.669Z,89.58
2023-02-02T15:50:51.297Z,90.82
2023-02-02T15:55:55.934Z,91.17
2023-02-02T16:01:15.976Z,93.61
2023-02-02T16:06:20.532Z,94.99
2023-02-02T16:11:25.013Z,95.48
2023-02-02T16:16:35.929Z,95.64
2023-02-02T16:21:45.769Z,96.92
2023-02-02T16:26:50.273Z,97.38
2023-02-02T16:31:57.024Z,97.31
2023-02-02T16:37:29.035Z,98.02
2023-02-02T16:42:33.721Z,97.45
2023-02-02T16:47:39.930Z,97.96
2023-02-02T16:52:54.707Z,97.30
2023-02-02T16:58:00.200Z,97.89
2023-02-02T17:03:09.477Z,98.50
2023-02-02T17:08:14.070Z,99.38
2023-02-02T17:13:37.340Z,100.00
2023-02-02T17:18:43.970Z,100.00
2023-02-02T17:23:49.296Z,100.00
2023-02-02T17:28:57.659Z,100.00
2023-02-02T17:34:04.317Z,100.00
2023-02-02T17:39:10.018Z,100.00
2023-02-02T17:44:14.707Z,100.00
2023-02-02T17:49:20.447Z,100.00
2023-02-02T17:54:23.718Z,100.00
2023-02-02T17:59:27.618Z,100.00
2023-02-02T18:04:33.353Z,100.00
2023-02-02T18:09:36.418Z,100.00
2023-02-02T18:14:39.808Z,100.00
2023-02-02T18:19:46.195Z,100.00
2023-02-02T18:24:49.948Z,100.00
2023-02-02T18:30:01.359Z,100.00
2023-02-02T18:35:06.262Z,100.00
2023-02-02T18:40:11.148Z,100.00
2023-02-02T18:45:19.981Z,100.00
2023-02-02T18:50:26.051Z,100.00
2023-02-02T18:55:29.782Z,100.00
2023-02-02T19:00:33.382Z,100.00
2023-02-02T19:05:55.632Z,100.00
2023-02-02T19:11:01.610Z,100.00
2023-02-02T19:16:20.892Z,100.00
2023-02-02T19:21:30.508Z,100.00
2023-02-02T19:26:39.120Z,100.00
2023-02-02T19:31:42.886Z,100.00
2023-02-02T19:36:49.420Z,100.00
2023-02-02T19:41:55.847Z,100.00
2023-02-02T19:47:00.088Z,100.00
2023-02-02T19:52:05.611Z,100.00
2023-02-02T19:57:18.309Z,100.00
2023-02-02T20:02:51.043Z,100.00
2023-02-02T20:08:00.218Z,100.00
2023-02-02T20:13:17.686Z,100.00
2023-02-02T20:18:23.819Z,100.00
2023-02-02T20:23:40.813Z,100.00
2023-02-02T20:28:46.588Z,100.00
2023-02-02T20:33:52.583Z,100.00
2023-02-02T20:38:57.695Z,100.00
2023-02-02T20:44:05.009Z,100.00
2023-02-02T20:49:08.677Z,100.00
2023-02-02T20:54:14.080Z,100.00
2023-02-02T20:59:17.452Z,100.00
2023-02-02T21:04:22.434Z,100.00
2023-02-02T21:09:28.804Z,100.00
2023-02-02T21:14:32.168Z,100.00
2023-02-02T21:19:35.475Z,100.00
2023-02-02T21:24:41.132Z,100.00
2023-02-02T21:29:44.287Z,100.00
2023-02-02T21:34:47.389Z,100.00
2023-02-02T21:39:56.819Z,100.00
2023-02-02T21:45:21.923Z,100.00
2023-02-02T21:50:29.622Z,100.00
2023-02-02T21:55:38.018Z,100.00
2023-02-02T22:00:41.141Z,100.00
2023-02-02T22:05:45.587Z,100.00
2023-02-02T22:10:49.110Z,100.00
2023-02-02T22:15:53.985Z,100.00
2023-02-02T22:20:58.755Z,100.00
2023-02-02T22:26:12.619Z,100.00
2023-02-02T22:31:15.785Z,100.00
2023-02-02T22:36:20.393Z,100.00
2023-02-02T22:41:23.674Z,100.00
2023-02-02T22:46:26.969Z,100.00
2023-02-02T22:51:31.659Z,100.00
2023-02-02T22:56:35.091Z,100.00
2023-02-02T23:01:38.280Z,100.00
2023-02-02T23:06:43.119Z,100.00
2023-02-02T23:11:49.148Z,100.00
2023-02-02T23:16:52.630Z,100.00
2023-02-02T23:21:57.669Z,100.00
2023-02-02T23:27:00.970Z,100.00
2023-02-02T23:32:04.485Z,100.00
2023-02-02T23:37:09.136Z,100.00
2023-02-02T23:42:12.754Z,100.00
2023-02-02T23:47:16.461Z,100.00
2023-02-02T23:52:21.745Z,100.00
2023-02-02T23:57:25.486Z,100.00
